地図

経路データ

SID SEASON NUMBER BASIN SUBBASIN NAME ISO_TIME NATURE LAT LON WMO_WIND WMO_PRES WMO_AGENCY TRACK_TYPE DIST2LAND LANDFALL IFLAG USA_AGENCY USA_ATCF_ID USA_LAT USA_LON USA_RECORD USA_STATUS USA_WIND USA_PRES USA_SSHS USA_R34_NE USA_R34_SE USA_R34_SW USA_R34_NW USA_R50_NE USA_R50_SE USA_R50_SW USA_R50_NW USA_R64_NE USA_R64_SE USA_R64_SW USA_R64_NW USA_POCI USA_ROCI USA_RMW USA_EYE TOKYO_LAT TOKYO_LON TOKYO_GRADE TOKYO_WIND TOKYO_PRES TOKYO_R50_DIR TOKYO_R50_LONG TOKYO_R50_SHORT TOKYO_R30_DIR TOKYO_R30_LONG TOKYO_R30_SHORT TOKYO_LAND CMA_LAT CMA_LON CMA_CAT CMA_WIND CMA_PRES HKO_LAT HKO_LON HKO_CAT HKO_WIND HKO_PRES NEWDELHI_LAT NEWDELHI_LON NEWDELHI_GRADE NEWDELHI_WIND NEWDELHI_PRES NEWDELHI_CI NEWDELHI_DP NEWDELHI_POCI REUNION_LAT REUNION_LON REUNION_TYPE REUNION_WIND REUNION_PRES REUNION_TNUM REUNION_CI REUNION_RMW REUNION_R34_NE REUNION_R34_SE REUNION_R34_SW REUNION_R34_NW REUNION_R50_NE REUNION_R50_SE REUNION_R50_SW REUNION_R50_NW REUNION_R64_NE REUNION_R64_SE REUNION_R64_SW REUNION_R64_NW BOM_LAT BOM_LON BOM_TYPE BOM_WIND BOM_PRES BOM_TNUM BOM_CI BOM_RMW BOM_R34_NE BOM_R34_SE BOM_R34_SW BOM_R34_NW BOM_R50_NE BOM_R50_SE BOM_R50_SW BOM_R50_NW BOM_R64_NE BOM_R64_SE BOM_R64_SW BOM_R64_NW BOM_ROCI BOM_POCI BOM_EYE BOM_POS_METHOD BOM_PRES_METHOD NADI_LAT NADI_LON NADI_CAT NADI_WIND NADI_PRES WELLINGTON_LAT WELLINGTON_LON WELLINGTON_WIND WELLINGTON_PRES DS824_LAT DS824_LON DS824_STAGE DS824_WIND DS824_PRES TD9636_LAT TD9636_LON TD9636_STAGE TD9636_WIND TD9636_PRES TD9635_LAT TD9635_LON TD9635_WIND TD9635_PRES TD9635_ROCI NEUMANN_LAT NEUMANN_LON NEUMANN_CLASS NEUMANN_WIND NEUMANN_PRES MLC_LAT MLC_LON MLC_CLASS MLC_WIND MLC_PRES USA_GUST BOM_GUST BOM_GUST_PER REUNION_GUST REUNION_GUST_PER USA_SEAHGT USA_SEARAD_NE USA_SEARAD_SE USA_SEARAD_SW USA_SEARAD_NW STORM_SPEED STORM_DIR
1953280N21274 1953 68 NA CS HAZEL 1953-10-07 06:00:00 TS 20.5000 -86.4000 25 hurdat_atl main 61 53 O_____________ hurdat_atl AL121953 20.5000 -86.4000 TD 25 -1 4 13
1953280N21274 1953 68 NA CS HAZEL 1953-10-07 09:00:00 TS 20.7000 -86.3500 main 53 47 P_____________ AL121953 20.7000 -86.3500 TD 27 -1 4 13
1953280N21274 1953 68 NA CS HAZEL 1953-10-07 12:00:00 TS 20.9000 -86.3000 30 hurdat_atl main 47 41 O_____________ hurdat_atl AL121953 20.9000 -86.3000 TD 30 -1 4 13
1953280N21274 1953 68 NA CS HAZEL 1953-10-07 15:00:00 TS 21.1000 -86.2500 main 51 51 P_____________ AL121953 21.1000 -86.2500 TD 32 -1 4 13
1953280N21274 1953 68 NA CS HAZEL 1953-10-07 18:00:00 TS 21.3000 -86.2000 35 hurdat_atl main 56 56 O_____________ hurdat_atl AL121953 21.3000 -86.2000 TS 35 0 4 13
1953280N21274 1953 68 NA CS HAZEL 1953-10-07 21:00:00 TS 21.4925 -86.1425 main 75 75 P_____________ AL121953 21.4925 -86.1425 TS 35 0 4 13
1953280N21274 1953 68 NA CS HAZEL 1953-10-08 00:00:00 TS 21.7000 -86.1000 35 hurdat_atl main 85 85 O_____________ hurdat_atl AL121953 21.7000 -86.1000 TS 35 0 5 4
1953280N21274 1953 68 NA GM HAZEL 1953-10-08 03:00:00 TS 21.9425 -86.0999 main 98 98 P_____________ AL121953 21.9425 -86.0999 TS 37 0 5 2
1953280N21274 1953 68 NA GM HAZEL 1953-10-08 06:00:00 TS 22.2000 -86.1000 40 hurdat_atl main 118 118 O_____________ hurdat_atl AL121953 22.2000 -86.1000 TS 40 0 5 3
1953280N21274 1953 68 NA GM HAZEL 1953-10-08 09:00:00 TS 22.4500 -86.0724 main 126 126 P_____________ AL121953 22.4500 -86.0724 TS 42 0 5 10
1953280N21274 1953 68 NA GM HAZEL 1953-10-08 12:00:00 TS 22.7000 -86.0000 45 hurdat_atl main 136 136 O_____________ hurdat_atl AL121953 22.7000 -86.0000 TS 45 0 5 21
1953280N21274 1953 68 NA GM HAZEL 1953-10-08 15:00:00 TS 22.9200 -85.8798 main 145 145 P_____________ AL121953 22.9200 -85.8798 TS 45 0 6 29
1953280N21274 1953 68 NA GM HAZEL 1953-10-08 18:00:00 TS 23.2000 -85.7000 45 1002 hurdat_atl main 162 162 O_____________ hurdat_atl AL121953 23.2000 -85.7000 TS 45 1002 0 8 28
1953280N21274 1953 68 NA GM HAZEL 1953-10-08 21:00:00 TS 23.6049 -85.4872 main 181 181 P_____________ AL121953 23.6049 -85.4872 TS 50 0 10 27
1953280N21274 1953 68 NA GM HAZEL 1953-10-09 00:00:00 TS 24.1000 -85.2000 55 hurdat_atl main 198 198 O_____________ hurdat_atl AL121953 24.1000 -85.2000 TS 55 0 12 30
1953280N21274 1953 68 NA GM HAZEL 1953-10-09 03:00:00 TS 24.6424 -84.8448 main 227 227 P_____________ AL121953 24.6424 -84.8448 TS 60 0 13 33
1953280N21274 1953 68 NA GM HAZEL 1953-10-09 06:00:00 TS 25.2000 -84.4000 65 hurdat_atl main 275 209 O_____________ hurdat_atl AL121953 25.2000 -84.4000 HU 65 1 13 36
1953280N21274 1953 68 NA GM HAZEL 1953-10-09 09:00:00 TS 25.7058 -83.9818 main 209 119 P_____________ AL121953 25.7058 -83.9818 HU 70 1 14 45
1953280N21274 1953 68 NA GM HAZEL 1953-10-09 12:00:00 TS 26.2000 -83.3000 75 hurdat_atl main 119 9 O_____________ hurdat_atl AL121953 26.2000 -83.3000 HU 75 1 19 58
1953280N21274 1953 68 NA GM HAZEL 1953-10-09 15:00:00 TS 26.7000 -82.2000 75 hurdat_atl main 9 0 O_____________ hurdat_atl AL121953 26.7000 -82.2000 L HU 75 1 18 65
1953280N21274 1953 68 NA GM HAZEL 1953-10-09 16:00:00 TS 26.7000 -82.1000 75 hurdat_atl main 0 0 O_____________ hurdat_atl AL121953 26.7000 -82.1000 L HU 75 1 16 61
1953280N21274 1953 68 NA NA HAZEL 1953-10-09 18:00:00 TS 27.1000 -81.4000 65 hurdat_atl main 0 0 O_____________ hurdat_atl AL121953 27.1000 -81.4000 HU 65 1 23 56
1953280N21274 1953 68 NA NA HAZEL 1953-10-09 21:00:00 TS 27.7689 -80.3105 main 19 19 P_____________ AL121953 27.7689 -80.3105 HU 62 0 25 55
1953280N21274 1953 68 NA NA HAZEL 1953-10-10 00:00:00 TS 28.5000 -79.1000 60 hurdat_atl main 136 136 O_____________ hurdat_atl AL121953 28.5000 -79.1000 TS 60 0 28 57
1953280N21274 1953 68 NA NA HAZEL 1953-10-10 03:00:00 TS 29.2505 -77.6724 main 286 286 P_____________ AL121953 29.2505 -77.6724 TS 60 0 29 59
1953280N21274 1953 68 NA NA HAZEL 1953-10-10 06:00:00 TS 30.0000 -76.2000 60 hurdat_atl main 448 448 O_____________ hurdat_atl AL121953 30.0000 -76.2000 TS 60 0 29 59
1953280N21274 1953 68 NA NA HAZEL 1953-10-10 09:00:00 TS 30.7213 -74.8462 main 466 449 P_____________ AL121953 30.7213 -74.8462 TS 60 0 26 58
1953280N21274 1953 68 NA NA HAZEL 1953-10-10 12:00:00 ET 31.4000 -73.6000 60 hurdat_atl main 456 452 O_____________ hurdat_atl AL121953 31.4000 -73.6000 EX 60 -4 24 58
1953280N21274 1953 68 NA NA HAZEL 1953-10-10 15:00:00 ET 32.0142 -72.4234 main 484 484 P_____________ AL121953 32.0142 -72.4234 EX 60 -4 22 57
1953280N21274 1953 68 NA NA HAZEL 1953-10-10 18:00:00 ET 32.6000 -71.4000 60 989 hurdat_atl main 517 517 O_____________ hurdat_atl AL121953 32.6000 -71.4000 EX 60 989 -4 20 53
1953280N21274 1953 68 NA NA HAZEL 1953-10-10 21:00:00 ET 33.1983 -70.5604 main 533 533 P_____________ AL121953 33.1983 -70.5604 EX 57 -4 18 48
1953280N21274 1953 68 NA NA HAZEL 1953-10-11 00:00:00 ET 33.8000 -69.8000 55 hurdat_atl main 565 565 O_____________ hurdat_atl AL121953 33.8000 -69.8000 EX 55 -4 18 47
1953280N21274 1953 68 NA NA HAZEL 1953-10-11 03:00:00 ET 34.3979 -69.0224 main 610 610 P_____________ AL121953 34.3979 -69.0224 EX 52 -4 18 49
1953280N21274 1953 68 NA NA HAZEL 1953-10-11 06:00:00 ET 35.0000 -68.1000 50 hurdat_atl main 674 674 O_____________ hurdat_atl AL121953 35.0000 -68.1000 EX 50 -4 21 56
1953280N21274 1953 68 NA NA HAZEL 1953-10-11 09:00:00 ET 35.5698 -66.8872 main 730 720 P_____________ AL121953 35.5698 -66.8872 EX 50 -4 24 60
1953280N21274 1953 68 NA NA HAZEL 1953-10-11 12:00:00 ET 36.2000 -65.5000 50 hurdat_atl main 724 720 O_____________ hurdat_atl AL121953 36.2000 -65.5000 EX 50 -4 27 58
1953280N21274 1953 68 NA NA HAZEL 1953-10-11 15:00:00 ET 36.9766 -64.0721 main 727 670 P_____________ AL121953 36.9766 -64.0721 EX 50 -4 28 55
1953280N21274 1953 68 NA NA HAZEL 1953-10-11 18:00:00 ET 37.8000 -62.6000 50 hurdat_atl main 673 648 O_____________ hurdat_atl AL121953 37.8000 -62.6000 EX 50 -4 28 56
1953280N21274 1953 68 NA NA HAZEL 1953-10-11 21:00:00 ET 38.5474 -61.1678 main 653 643 P_____________ AL121953 38.5474 -61.1678 EX 50 -4 27 57
1953280N21274 1953 68 NA NA HAZEL 1953-10-12 00:00:00 ET 39.3000 -59.7000 50 hurdat_atl main 652 621 O_____________ hurdat_atl AL121953 39.3000 -59.7000 EX 50 -4 28 57
1953280N21274 1953 68 NA NA HAZEL 1953-10-12 03:00:00 ET 40.0529 -58.1386 main 617 600 P_____________ AL121953 40.0529 -58.1386 EX 50 -4 29 57
1953280N21274 1953 68 NA NA HAZEL 1953-10-12 06:00:00 ET 40.9000 -56.5000 50 hurdat_atl main 605 543 O_____________ hurdat_atl AL121953 40.9000 -56.5000 EX 50 -4 31 55
1953280N21274 1953 68 NA NA HAZEL 1953-10-12 09:00:00 ET 41.8421 -54.7994 main 541 411 P_____________ AL121953 41.8421 -54.7994 EX 50 -4 33 51
1953280N21274 1953 68 NA NA HAZEL 1953-10-12 12:00:00 ET 43.0000 -53.0000 50 hurdat_atl main 400 299 O_____________ hurdat_atl AL121953 43.0000 -53.0000 EX 50 -4 38 47
1953280N21274 1953 68 NA NA HAZEL 1953-10-12 15:00:00 ET 44.4332 -51.0015 main 298 283 P_____________ AL121953 44.4332 -51.0015 EX 52 -4 41 44
1953280N21274 1953 68 NA NA HAZEL 1953-10-12 18:00:00 ET 46.0000 -49.0000 55 hurdat_atl main 318 318 O_____________ hurdat_atl AL121953 46.0000 -49.0000 EX 55 -4 41 41
1953280N21274 1953 68 NA NA HAZEL 1953-10-12 21:00:00 ET 47.5348 -47.1555 main 403 403 P_____________ AL121953 47.5348 -47.1555 EX 57 -4 38 38
1953280N21274 1953 68 NA NA HAZEL 1953-10-13 00:00:00 ET 49.0000 -45.5000 60 hurdat_atl main 543 543 O_____________ hurdat_atl AL121953 49.0000 -45.5000 EX 60 -4 35 37
1953280N21274 1953 68 NA NA HAZEL 1953-10-13 03:00:00 ET 50.3620 -43.8912 main 687 687 P_____________ AL121953 50.3620 -43.8912 EX 62 -4 31 36
1953280N21274 1953 68 NA NA HAZEL 1953-10-13 06:00:00 ET 51.5000 -42.7000 65 hurdat_atl main 799 799 O_____________ hurdat_atl AL121953 51.5000 -42.7000 EX 65 -4 23 28
1953280N21274 1953 68 NA NA HAZEL 1953-10-13 09:00:00 ET 52.3593 -42.1501 main 854 789 P_____________ AL121953 52.3593 -42.1501 EX 65 -4 16 16
1953280N21274 1953 68 NA NA HAZEL 1953-10-13 12:00:00 ET 53.0000 -42.0000 65 hurdat_atl main 789 734 O_____________ hurdat_atl AL121953 53.0000 -42.0000 EX 65 -4 12 9
1953280N21274 1953 68 NA NA HAZEL 1953-10-13 15:00:00 ET 53.5447 -41.8324 main 735 680 P_____________ AL121953 53.5447 -41.8324 EX 65 -4 10 10
1953280N21274 1953 68 NA NA HAZEL 1953-10-13 18:00:00 ET 54.0000 -41.7000 65 hurdat_atl main 680 627 O_____________ hurdat_atl AL121953 54.0000 -41.7000 EX 65 -4 10 12
1953280N21274 1953 68 NA NA HAZEL 1953-10-13 21:00:00 ET 54.4799 -41.4799 main 627 586 P_____________ AL121953 54.4799 -41.4799 EX 65 -4 9 18
1953280N21274 1953 68 NA NA HAZEL 1953-10-14 00:00:00 ET 54.9000 -41.2000 65 hurdat_atl main 586 556 O_____________ hurdat_atl AL121953 54.9000 -41.2000 EX 65 -4 8 24
1953280N21274 1953 68 NA NA HAZEL 1953-10-14 03:00:00 ET 55.2298 -40.8866 main 557 530 P_____________ AL121953 55.2298 -40.8866 EX 65 -4 7 34
1953280N21274 1953 68 NA NA HAZEL 1953-10-14 06:00:00 ET 55.5000 -40.5000 65 hurdat_atl main 531 515 O_____________ hurdat_atl AL121953 55.5000 -40.5000 EX 65 -4 7 42
1953280N21274 1953 68 NA NA HAZEL 1953-10-14 09:00:00 ET 55.7570 -40.0588 main 507 497 P_____________ AL121953 55.7570 -40.0588 EX 65 -4 7 48
1953280N21274 1953 68 NA NA HAZEL 1953-10-14 12:00:00 ET 56.0000 -39.5000 65 hurdat_atl main 500 490 O_____________ hurdat_atl AL121953 56.0000 -39.5000 EX 65 -4 8 55
1953280N21274 1953 68 NA NA HAZEL 1953-10-14 15:00:00 ET 56.2494 -38.8240 main 499 488 P_____________ AL121953 56.2494 -38.8240 EX 65 -4 10 59
1953280N21274 1953 68 NA NA HAZEL 1953-10-14 18:00:00 ET 56.5000 -38.0000 65 hurdat_atl main 496 494 O_____________ hurdat_atl AL121953 56.5000 -38.0000 EX 65 -4 11 63
1953280N21274 1953 68 NA NA HAZEL 1953-10-14 21:00:00 ET 56.7491 -37.0736 main 511 507 P_____________ AL121953 56.7491 -37.0736 EX 65 -4 12 65
1953280N21274 1953 68 NA NA HAZEL 1953-10-15 00:00:00 ET 57.0000 -36.0000 65 hurdat_atl main 533 533 O_____________ hurdat_atl AL121953 57.0000 -36.0000 EX 65 -4 14 69
1953280N21274 1953 68 NA NA HAZEL 1953-10-15 03:00:00 ET 57.2367 -34.7120 main 579 577 P_____________ AL121953 57.2367 -34.7120 EX 65 -4 14 70
1953280N21274 1953 68 NA NA HAZEL 1953-10-15 06:00:00 ET 57.5000 -33.5000 65 hurdat_atl main 619 619 O_____________ hurdat_atl AL121953 57.5000 -33.5000 EX 65 -4 12 63
1953280N21274 1953 68 NA NA HAZEL 1953-10-15 09:00:00 ET 57.8032 -32.6495 main 649 649 P_____________ AL121953 57.8032 -32.6495 EX 65 -4 11 49
1953280N21274 1953 68 NA NA HAZEL 1953-10-15 12:00:00 ET 58.2000 -32.0000 65 hurdat_atl main 662 662 O_____________ hurdat_atl AL121953 58.2000 -32.0000 EX 65 -4 11 38
1953280N21274 1953 68 NA NA HAZEL 1953-10-15 15:00:00 ET 58.6898 -31.3467 main 677 654 P_____________ AL121953 58.6898 -31.3467 EX 62 -4 13 30
1953280N21274 1953 68 NA NA HAZEL 1953-10-15 18:00:00 ET 59.3000 -30.8000 60 hurdat_atl main 654 579 O_____________ hurdat_atl AL121953 59.3000 -30.8000 EX 60 -4 14 20
1953280N21274 1953 68 NA NA HAZEL 1953-10-15 21:00:00 ET 60.0496 -30.3616 main 579 500 P_____________ AL121953 60.0496 -30.3616 EX 57 -4 15 15
1953280N21274 1953 68 NA NA HAZEL 1953-10-16 00:00:00 ET 60.8000 -30.0000 55 hurdat_atl main 500 443 O_____________ hurdat_atl AL121953 60.8000 -30.0000 EX 55 -4 14 14
1953280N21274 1953 68 NA NA HAZEL 1953-10-16 03:00:00 ET 61.4170 -29.6772 main 443 393 P_____________ AL121953 61.4170 -29.6772 EX 52 -4 11 17
1953280N21274 1953 68 NA NA HAZEL 1953-10-16 06:00:00 ET 61.9000 -29.3000 50 hurdat_atl main 393 353 O_____________ hurdat_atl AL121953 61.9000 -29.3000 EX 50 -4 9 28
1953280N21274 1953 68 NA NA HAZEL 1953-10-16 09:00:00 ET 62.2409 -28.7553 main 353 305 P_____________ AL121953 62.2409 -28.7553 EX 47 -4 8 43
1953280N21274 1953 68 NA NA HAZEL 1953-10-16 12:00:00 ET 62.5000 -28.1000 45 hurdat_atl main 305 O_____________ hurdat_atl AL121953 62.5000 -28.1000 EX 45 -4 8 49

IBTrACS Databaseについて

本データベースは、米国NOAAが公開する1842年以降の世界の熱帯低気圧のベストトラックデータアーカイブInternational Best Track Archive for Climate Stewardship (IBTrACS)を、ウェブで閲覧しやすい形式に変換したものです。

最終更新日:2021-10-21